sensor_id;sensor_type;location;lat;lon;timestamp;temperature;humidity
50758;DHT22;36732;47.980;11.652;2023-02-13T00:01:28;6.50;65.80
50758;DHT22;36732;47.980;11.652;2023-02-13T00:03:54;6.50;65.80
50758;DHT22;36732;47.980;11.652;2023-02-13T00:06:20;6.50;65.70
50758;DHT22;36732;47.980;11.652;2023-02-13T00:08:46;6.50;65.70
50758;DHT22;36732;47.980;11.652;2023-02-13T00:11:12;6.50;65.70
50758;DHT22;36732;47.980;11.652;2023-02-13T00:13:37;6.40;65.70
50758;DHT22;36732;47.980;11.652;2023-02-13T00:16:03;6.40;65.70
50758;DHT22;36732;47.980;11.652;2023-02-13T00:18:33;6.40;65.70
50758;DHT22;36732;47.980;11.652;2023-02-13T00:21:08;6.40;65.70
50758;DHT22;36732;47.980;11.652;2023-02-13T00:23:36;6.40;65.70
50758;DHT22;36732;47.980;11.652;2023-02-13T00:26:11;6.40;65.60
50758;DHT22;36732;47.980;11.652;2023-02-13T00:28:38;6.40;65.70
50758;DHT22;36732;47.980;11.652;2023-02-13T00:31:10;6.40;65.60
50758;DHT22;36732;47.980;11.652;2023-02-13T00:33:38;6.40;65.80
50758;DHT22;36732;47.980;11.652;2023-02-13T00:36:12;6.40;65.70
50758;DHT22;36732;47.980;11.652;2023-02-13T00:38:40;6.40;65.60
50758;DHT22;36732;47.980;11.652;2023-02-13T00:41:06;6.40;65.60
50758;DHT22;36732;47.980;11.652;2023-02-13T00:43:32;6.40;65.60
50758;DHT22;36732;47.980;11.652;2023-02-13T00:45:59;6.40;65.70
50758;DHT22;36732;47.980;11.652;2023-02-13T00:48:26;6.40;65.60
50758;DHT22;36732;47.980;11.652;2023-02-13T00:50:53;6.40;65.60
50758;DHT22;36732;47.980;11.652;2023-02-13T00:53:23;6.40;65.60
50758;DHT22;36732;47.980;11.652;2023-02-13T00:55:50;6.40;65.50
50758;DHT22;36732;47.980;11.652;2023-02-13T00:58:17;6.40;65.40
50758;DHT22;36732;47.980;11.652;2023-02-13T01:00:43;6.40;66.00
50758;DHT22;36732;47.980;11.652;2023-02-13T01:03:10;6.30;65.30
50758;DHT22;36732;47.980;11.652;2023-02-13T01:05:36;6.30;65.90
50758;DHT22;36732;47.980;11.652;2023-02-13T01:08:02;6.30;65.20
50758;DHT22;36732;47.980;11.652;2023-02-13T01:10:28;6.30;65.20
50758;DHT22;36732;47.980;11.652;2023-02-13T01:12:53;6.30;65.10
50758;DHT22;36732;47.980;11.652;2023-02-13T01:15:19;6.20;65.10
50758;DHT22;36732;47.980;11.652;2023-02-13T01:17:45;6.20;65.20
50758;DHT22;36732;47.980;11.652;2023-02-13T01:20:12;6.20;65.20
50758;DHT22;36732;47.980;11.652;2023-02-13T01:22:38;6.20;65.40
50758;DHT22;36732;47.980;11.652;2023-02-13T01:25:05;6.10;65.30
50758;DHT22;36732;47.980;11.652;2023-02-13T01:27:31;6.10;65.30
50758;DHT22;36732;47.980;11.652;2023-02-13T01:29:57;6.10;65.20
50758;DHT22;36732;47.980;11.652;2023-02-13T01:32:24;6.10;65.40
50758;DHT22;36732;47.980;11.652;2023-02-13T01:34:49;6.10;65.40
50758;DHT22;36732;47.980;11.652;2023-02-13T01:37:15;6.10;65.40
50758;DHT22;36732;47.980;11.652;2023-02-13T01:39:41;6.10;65.40
50758;DHT22;36732;47.980;11.652;2023-02-13T01:42:28;6.10;65.40
50758;DHT22;36732;47.980;11.652;2023-02-13T01:45:01;6.10;65.50
50758;DHT22;36732;47.980;11.652;2023-02-13T01:47:37;6.10;65.40
50758;DHT22;36732;47.980;11.652;2023-02-13T01:53:00;6.10;65.40
50758;DHT22;36732;47.980;11.652;2023-02-13T01:55:32;6.10;65.50
50758;DHT22;36732;47.980;11.652;2023-02-13T01:58:05;6.10;65.30
50758;DHT22;36732;47.980;11.652;2023-02-13T02:00:35;6.10;65.40
50758;DHT22;36732;47.980;11.652;2023-02-13T02:03:08;6.10;65.40
50758;DHT22;36732;47.980;11.652;2023-02-13T02:05:37;6.10;65.30
50758;DHT22;36732;47.980;11.652;2023-02-13T02:08:05;6.20;65.30
50758;DHT22;36732;47.980;11.652;2023-02-13T02:10:33;6.10;65.40
50758;DHT22;36732;47.980;11.652;2023-02-13T02:13:06;6.10;65.20
50758;DHT22;36732;47.980;11.652;2023-02-13T02:15:36;6.20;65.40
50758;DHT22;36732;47.980;11.652;2023-02-13T02:18:01;6.20;65.30
50758;DHT22;36732;47.980;11.652;2023-02-13T02:23:42;6.20;65.20
50758;DHT22;36732;47.980;11.652;2023-02-13T02:29:45;6.20;65.00
50758;DHT22;36732;47.980;11.652;2023-02-13T02:32:49;6.10;65.00
50758;DHT22;36732;47.980;11.652;2023-02-13T02:35:29;6.10;65.00
50758;DHT22;36732;47.980;11.652;2023-02-13T02:41:07;6.10;65.20
50758;DHT22;36732;47.980;11.652;2023-02-13T02:47:23;6.20;65.00
50758;DHT22;36732;47.980;11.652;2023-02-13T02:56:39;6.10;64.80
50758;DHT22;36732;47.980;11.652;2023-02-13T02:59:10;6.10;64.90
50758;DHT22;36732;47.980;11.652;2023-02-13T03:01:59;6.10;64.70
50758;DHT22;36732;47.980;11.652;2023-02-13T03:04:50;6.10;64.60
50758;DHT22;36732;47.980;11.652;2023-02-13T03:07:36;6.10;64.70
50758;DHT22;36732;47.980;11.652;2023-02-13T03:10:06;6.10;64.50
50758;DHT22;36732;47.980;11.652;2023-02-13T03:16:14;6.00;65.30
50758;DHT22;36732;47.980;11.652;2023-02-13T03:19:03;6.00;64.60
50758;DHT22;36732;47.980;11.652;2023-02-13T03:22:04;6.00;64.70
50758;DHT22;36732;47.980;11.652;2023-02-13T03:24:57;6.00;64.60
50758;DHT22;36732;47.980;11.652;2023-02-13T03:27:45;6.00;64.40
50758;DHT22;36732;47.980;11.652;2023-02-13T03:30:59;5.90;64.70
50758;DHT22;36732;47.980;11.652;2023-02-13T03:33:57;5.90;64.60
50758;DHT22;36732;47.980;11.652;2023-02-13T03:36:36;5.90;64.80
50758;DHT22;36732;47.980;11.652;2023-02-13T03:39:55;5.90;64.70
50758;DHT22;36732;47.980;11.652;2023-02-13T03:43:14;5.90;64.70
50758;DHT22;36732;47.980;11.652;2023-02-13T03:45:42;5.90;64.70
50758;DHT22;36732;47.980;11.652;2023-02-13T03:48:34;5.90;64.50
50758;DHT22;36732;47.980;11.652;2023-02-13T03:54:00;5.90;64.60
50758;DHT22;36732;47.980;11.652;2023-02-13T03:56:29;5.90;64.60
50758;DHT22;36732;47.980;11.652;2023-02-13T03:59:25;5.90;64.60
50758;DHT22;36732;47.980;11.652;2023-02-13T04:02:10;5.90;64.70
50758;DHT22;36732;47.980;11.652;2023-02-13T04:04:52;5.90;64.80
50758;DHT22;36732;47.980;11.652;2023-02-13T04:07:21;5.90;65.30
50758;DHT22;36732;47.980;11.652;2023-02-13T04:10:01;5.90;64.70
50758;DHT22;36732;47.980;11.652;2023-02-13T04:15:15;5.90;64.70
50758;DHT22;36732;47.980;11.652;2023-02-13T04:17:48;5.90;64.80
50758;DHT22;36732;47.980;11.652;2023-02-13T04:20:18;5.90;65.30
50758;DHT22;36732;47.980;11.652;2023-02-13T04:22:46;5.90;64.60
50758;DHT22;36732;47.980;11.652;2023-02-13T04:25:14;5.90;64.50
50758;DHT22;36732;47.980;11.652;2023-02-13T04:27:41;5.90;64.60
50758;DHT22;36732;47.980;11.652;2023-02-13T04:30:08;5.90;64.50
50758;DHT22;36732;47.980;11.652;2023-02-13T04:32:34;5.90;64.60
50758;DHT22;36732;47.980;11.652;2023-02-13T04:34:59;5.90;64.60
50758;DHT22;36732;47.980;11.652;2023-02-13T04:37:25;5.90;64.70
50758;DHT22;36732;47.980;11.652;2023-02-13T04:39:51;5.90;64.70
50758;DHT22;36732;47.980;11.652;2023-02-13T04:42:16;5.90;64.60
50758;DHT22;36732;47.980;11.652;2023-02-13T04:44:42;5.90;64.60
50758;DHT22;36732;47.980;11.652;2023-02-13T04:47:08;5.90;64.40
50758;DHT22;36732;47.980;11.652;2023-02-13T04:49:33;5.90;64.40
50758;DHT22;36732;47.980;11.652;2023-02-13T04:51:59;5.90;64.50
50758;DHT22;36732;47.980;11.652;2023-02-13T04:54:25;5.90;64.50
50758;DHT22;36732;47.980;11.652;2023-02-13T04:56:51;5.90;64.60
50758;DHT22;36732;47.980;11.652;2023-02-13T04:59:16;5.80;64.50
50758;DHT22;36732;47.980;11.652;2023-02-13T05:01:42;5.80;64.60
50758;DHT22;36732;47.980;11.652;2023-02-13T05:04:08;5.90;64.70
50758;DHT22;36732;47.980;11.652;2023-02-13T05:06:35;5.90;64.70
50758;DHT22;36732;47.980;11.652;2023-02-13T05:09:02;5.90;64.70
50758;DHT22;36732;47.980;11.652;2023-02-13T05:11:28;5.90;64.70
50758;DHT22;36732;47.980;11.652;2023-02-13T05:13:54;5.90;64.60
50758;DHT22;36732;47.980;11.652;2023-02-13T05:16:19;5.90;64.60
50758;DHT22;36732;47.980;11.652;2023-02-13T05:18:45;5.90;64.50
50758;DHT22;36732;47.980;11.652;2023-02-13T05:21:11;5.90;64.50
50758;DHT22;36732;47.980;11.652;2023-02-13T05:23:55;5.90;64.40
50758;DHT22;36732;47.980;11.652;2023-02-13T05:26:21;5.90;64.40
50758;DHT22;36732;47.980;11.652;2023-02-13T05:28:46;5.90;64.40
50758;DHT22;36732;47.980;11.652;2023-02-13T05:31:30;5.90;64.50
50758;DHT22;36732;47.980;11.652;2023-02-13T05:33:56;5.90;64.50
50758;DHT22;36732;47.980;11.652;2023-02-13T05:36:22;5.90;64.60
50758;DHT22;36732;47.980;11.652;2023-02-13T05:38:47;5.90;64.60
50758;DHT22;36732;47.980;11.652;2023-02-13T05:41:13;5.90;64.70
50758;DHT22;36732;47.980;11.652;2023-02-13T05:43:39;5.90;64.70
50758;DHT22;36732;47.980;11.652;2023-02-13T05:46:07;5.90;64.60
50758;DHT22;36732;47.980;11.652;2023-02-13T05:48:34;5.90;64.60
50758;DHT22;36732;47.980;11.652;2023-02-13T05:51:00;5.90;64.60
50758;DHT22;36732;47.980;11.652;2023-02-13T05:53:26;5.90;64.50
50758;DHT22;36732;47.980;11.652;2023-02-13T05:55:54;5.90;64.60
50758;DHT22;36732;47.980;11.652;2023-02-13T05:58:20;5.90;64.60
50758;DHT22;36732;47.980;11.652;2023-02-13T06:00:46;5.90;64.60
50758;DHT22;36732;47.980;11.652;2023-02-13T06:03:13;5.90;64.50
50758;DHT22;36732;47.980;11.652;2023-02-13T06:05:39;5.90;65.10
50758;DHT22;36732;47.980;11.652;2023-02-13T06:08:05;5.90;64.50
50758;DHT22;36732;47.980;11.652;2023-02-13T06:10:30;5.90;64.50
50758;DHT22;36732;47.980;11.652;2023-02-13T06:12:56;5.80;64.40
50758;DHT22;36732;47.980;11.652;2023-02-13T06:15:22;5.90;64.40
50758;DHT22;36732;47.980;11.652;2023-02-13T06:17:47;5.90;64.40
50758;DHT22;36732;47.980;11.652;2023-02-13T06:20:13;5.90;64.30
50758;DHT22;36732;47.980;11.652;2023-02-13T06:22:39;5.80;64.30
50758;DHT22;36732;47.980;11.652;2023-02-13T06:25:05;5.80;64.30
50758;DHT22;36732;47.980;11.652;2023-02-13T06:27:31;5.80;64.30
50758;DHT22;36732;47.980;11.652;2023-02-13T06:29:56;5.80;64.30
50758;DHT22;36732;47.980;11.652;2023-02-13T06:32:22;5.80;64.30
50758;DHT22;36732;47.980;11.652;2023-02-13T06:34:48;5.80;64.30
50758;DHT22;36732;47.980;11.652;2023-02-13T06:37:13;5.80;64.20
50758;DHT22;36732;47.980;11.652;2023-02-13T06:39:39;5.80;64.10
50758;DHT22;36732;47.980;11.652;2023-02-13T06:42:05;5.80;64.10
50758;DHT22;36732;47.980;11.652;2023-02-13T06:44:30;5.80;64.70
50758;DHT22;36732;47.980;11.652;2023-02-13T06:46:56;5.80;64.10
50758;DHT22;36732;47.980;11.652;2023-02-13T06:49:22;5.80;64.10
50758;DHT22;36732;47.980;11.652;2023-02-13T06:51:47;5.80;64.00
50758;DHT22;36732;47.980;11.652;2023-02-13T06:54:13;5.80;63.90
50758;DHT22;36732;47.980;11.652;2023-02-13T06:56:39;5.80;64.00
50758;DHT22;36732;47.980;11.652;2023-02-13T06:59:04;5.80;64.00
50758;DHT22;36732;47.980;11.652;2023-02-13T07:01:30;5.80;63.90
50758;DHT22;36732;47.980;11.652;2023-02-13T07:03:57;5.80;63.90
50758;DHT22;36732;47.980;11.652;2023-02-13T07:06:22;5.80;63.90
50758;DHT22;36732;47.980;11.652;2023-02-13T07:08:48;5.80;63.90
50758;DHT22;36732;47.980;11.652;2023-02-13T07:11:20;5.80;63.80
50758;DHT22;36732;47.980;11.652;2023-02-13T07:13:48;5.70;63.80
50758;DHT22;36732;47.980;11.652;2023-02-13T07:16:14;5.70;63.70
50758;DHT22;36732;47.980;11.652;2023-02-13T07:18:40;5.70;63.70
50758;DHT22;36732;47.980;11.652;2023-02-13T07:21:06;5.70;63.80
50758;DHT22;36732;47.980;11.652;2023-02-13T07:23:32;5.70;63.80
50758;DHT22;36732;47.980;11.652;2023-02-13T07:25:58;5.70;64.00
50758;DHT22;36732;47.980;11.652;2023-02-13T07:28:26;5.70;64.00
50758;DHT22;36732;47.980;11.652;2023-02-13T07:30:52;5.70;64.00
50758;DHT22;36732;47.980;11.652;2023-02-13T07:33:18;5.70;64.00
50758;DHT22;36732;47.980;11.652;2023-02-13T07:35:48;5.70;64.00
50758;DHT22;36732;47.980;11.652;2023-02-13T07:38:16;5.70;64.10
50758;DHT22;36732;47.980;11.652;2023-02-13T07:40:42;5.70;64.10
50758;DHT22;36732;47.980;11.652;2023-02-13T07:43:08;5.70;64.00
50758;DHT22;36732;47.980;11.652;2023-02-13T07:45:34;5.70;64.00
50758;DHT22;36732;47.980;11.652;2023-02-13T07:48:00;5.70;64.00
50758;DHT22;36732;47.980;11.652;2023-02-13T07:50:26;5.60;63.90
50758;DHT22;36732;47.980;11.652;2023-02-13T07:52:57;5.60;64.00
50758;DHT22;36732;47.980;11.652;2023-02-13T07:55:27;5.60;64.00
50758;DHT22;36732;47.980;11.652;2023-02-13T07:57:54;5.60;64.10
50758;DHT22;36732;47.980;11.652;2023-02-13T08:00:21;5.70;64.10
50758;DHT22;36732;47.980;11.652;2023-02-13T08:02:47;5.60;64.00
50758;DHT22;36732;47.980;11.652;2023-02-13T08:05:13;5.60;64.00
50758;DHT22;36732;47.980;11.652;2023-02-13T08:07:39;5.60;63.90
50758;DHT22;36732;47.980;11.652;2023-02-13T08:10:08;5.70;64.00
50758;DHT22;36732;47.980;11.652;2023-02-13T08:12:55;5.60;64.00
50758;DHT22;36732;47.980;11.652;2023-02-13T08:15:21;5.60;64.00
50758;DHT22;36732;47.980;11.652;2023-02-13T08:17:46;5.60;64.00
50758;DHT22;36732;47.980;11.652;2023-02-13T08:20:12;5.60;63.90
50758;DHT22;36732;47.980;11.652;2023-02-13T08:22:38;5.60;63.90
50758;DHT22;36732;47.980;11.652;2023-02-13T08:25:05;5.60;64.00
50758;DHT22;36732;47.980;11.652;2023-02-13T08:27:31;5.60;64.10
50758;DHT22;36732;47.980;11.652;2023-02-13T08:29:57;5.60;64.20
50758;DHT22;36732;47.980;11.652;2023-02-13T08:32:24;5.60;64.20
50758;DHT22;36732;47.980;11.652;2023-02-13T08:34:50;5.60;64.30
50758;DHT22;36732;47.980;11.652;2023-02-13T08:37:17;5.60;64.20
50758;DHT22;36732;47.980;11.652;2023-02-13T08:39:43;5.60;64.20
50758;DHT22;36732;47.980;11.652;2023-02-13T08:42:09;5.60;64.20
50758;DHT22;36732;47.980;11.652;2023-02-13T08:44:34;5.60;64.20
50758;DHT22;36732;47.980;11.652;2023-02-13T08:47:02;5.60;64.20
50758;DHT22;36732;47.980;11.652;2023-02-13T08:49:31;5.60;64.30
50758;DHT22;36732;47.980;11.652;2023-02-13T08:51:58;5.60;64.40
50758;DHT22;36732;47.980;11.652;2023-02-13T08:54:25;5.60;64.40
50758;DHT22;36732;47.980;11.652;2023-02-13T08:56:52;5.60;64.40
50758;DHT22;36732;47.980;11.652;2023-02-13T08:59:18;5.60;64.50
50758;DHT22;36732;47.980;11.652;2023-02-13T09:01:44;5.60;64.40
50758;DHT22;36732;47.980;11.652;2023-02-13T09:04:09;5.70;64.50
50758;DHT22;36732;47.980;11.652;2023-02-13T09:06:35;5.60;64.40
50758;DHT22;36732;47.980;11.652;2023-02-13T09:09:03;5.60;64.20
50758;DHT22;36732;47.980;11.652;2023-02-13T09:11:29;5.60;64.90
50758;DHT22;36732;47.980;11.652;2023-02-13T09:13:55;5.70;64.40
50758;DHT22;36732;47.980;11.652;2023-02-13T09:16:21;5.60;64.30
50758;DHT22;36732;47.980;11.652;2023-02-13T09:18:47;5.60;64.30
50758;DHT22;36732;47.980;11.652;2023-02-13T09:21:17;5.70;64.40
50758;DHT22;36732;47.980;11.652;2023-02-13T09:23:44;5.60;64.40
50758;DHT22;36732;47.980;11.652;2023-02-13T09:26:12;5.60;64.40
50758;DHT22;36732;47.980;11.652;2023-02-13T09:28:39;5.60;64.20
50758;DHT22;36732;47.980;11.652;2023-02-13T09:31:14;5.70;64.20
50758;DHT22;36732;47.980;11.652;2023-02-13T09:33:43;5.60;64.20
50758;DHT22;36732;47.980;11.652;2023-02-13T09:36:15;5.60;64.30
50758;DHT22;36732;47.980;11.652;2023-02-13T09:38:47;5.60;64.40
50758;DHT22;36732;47.980;11.652;2023-02-13T09:41:26;5.60;64.40
50758;DHT22;36732;47.980;11.652;2023-02-13T09:44:00;5.60;64.50
50758;DHT22;36732;47.980;11.652;2023-02-13T09:46:35;5.60;64.50
50758;DHT22;36732;47.980;11.652;2023-02-13T09:49:07;5.60;64.50
50758;DHT22;36732;47.980;11.652;2023-02-13T09:51:35;5.60;64.60
50758;DHT22;36732;47.980;11.652;2023-02-13T09:54:04;5.60;64.60
50758;DHT22;36732;47.980;11.652;2023-02-13T09:56:39;5.70;64.40
50758;DHT22;36732;47.980;11.652;2023-02-13T10:10:59;5.60;64.50
50758;DHT22;36732;47.980;11.652;2023-02-13T10:13:44;5.60;64.40
50758;DHT22;36732;47.980;11.652;2023-02-13T10:17:00;5.60;64.50
50758;DHT22;36732;47.980;11.652;2023-02-13T10:19:49;5.60;64.70
50758;DHT22;36732;47.980;11.652;2023-02-13T10:22:33;5.60;64.80
50758;DHT22;36732;47.980;11.652;2023-02-13T10:25:13;5.70;64.90
50758;DHT22;36732;47.980;11.652;2023-02-13T10:27:47;5.70;65.10
50758;DHT22;36732;47.980;11.652;2023-02-13T10:30:29;5.70;65.00
50758;DHT22;36732;47.980;11.652;2023-02-13T10:33:00;5.70;65.20
50758;DHT22;36732;47.980;11.652;2023-02-13T10:35:50;5.70;65.10
50758;DHT22;36732;47.980;11.652;2023-02-13T10:38:22;5.80;65.20
50758;DHT22;36732;47.980;11.652;2023-02-13T10:47:15;5.80;65.30
50758;DHT22;36732;47.980;11.652;2023-02-13T10:56:06;5.90;65.20
50758;DHT22;36732;47.980;11.652;2023-02-13T11:01:17;6.00;65.20
50758;DHT22;36732;47.980;11.652;2023-02-13T11:03:45;6.00;64.90
50758;DHT22;36732;47.980;11.652;2023-02-13T11:06:16;6.00;64.90
50758;DHT22;36732;47.980;11.652;2023-02-13T11:08:45;6.00;65.00
50758;DHT22;36732;47.980;11.652;2023-02-13T11:16:45;6.10;65.00
50758;DHT22;36732;47.980;11.652;2023-02-13T11:19:24;6.10;64.90
50758;DHT22;36732;47.980;11.652;2023-02-13T11:22:00;6.10;64.70
50758;DHT22;36732;47.980;11.652;2023-02-13T11:24:29;6.10;64.70
50758;DHT22;36732;47.980;11.652;2023-02-13T11:27:02;6.10;64.90
50758;DHT22;36732;47.980;11.652;2023-02-13T11:29:34;6.10;65.00
50758;DHT22;36732;47.980;11.652;2023-02-13T11:32:28;6.10;64.80
50758;DHT22;36732;47.980;11.652;2023-02-13T11:34:55;6.10;65.00
50758;DHT22;36732;47.980;11.652;2023-02-13T11:37:24;6.10;64.80
50758;DHT22;36732;47.980;11.652;2023-02-13T11:39:54;6.10;64.90
50758;DHT22;36732;47.980;11.652;2023-02-13T11:42:31;6.10;64.90
50758;DHT22;36732;47.980;11.652;2023-02-13T11:45:00;6.20;65.10
50758;DHT22;36732;47.980;11.652;2023-02-13T11:47:37;6.20;65.10
50758;DHT22;36732;47.980;11.652;2023-02-13T11:50:31;6.20;65.10
50758;DHT22;36732;47.980;11.652;2023-02-13T11:53:05;6.20;65.20
50758;DHT22;36732;47.980;11.652;2023-02-13T11:55:34;6.20;65.00
50758;DHT22;36732;47.980;11.652;2023-02-13T12:00:42;6.20;65.00
50758;DHT22;36732;47.980;11.652;2023-02-13T12:03:26;6.30;65.00
50758;DHT22;36732;47.980;11.652;2023-02-13T12:06:10;6.30;65.10
50758;DHT22;36732;47.980;11.652;2023-02-13T12:08:42;6.30;65.00
50758;DHT22;36732;47.980;11.652;2023-02-13T12:13:45;6.30;65.00
50758;DHT22;36732;47.980;11.652;2023-02-13T12:16:29;6.30;64.90
50758;DHT22;36732;47.980;11.652;2023-02-13T12:19:00;6.30;64.90
50758;DHT22;36732;47.980;11.652;2023-02-13T12:36:49;6.40;65.00
50758;DHT22;36732;47.980;11.652;2023-02-13T12:39:24;6.40;65.00
50758;DHT22;36732;47.980;11.652;2023-02-13T12:48:00;6.40;65.20
50758;DHT22;36732;47.980;11.652;2023-02-13T12:56:26;6.40;65.60
50758;DHT22;36732;47.980;11.652;2023-02-13T13:02:07;6.40;65.70
50758;DHT22;36732;47.980;11.652;2023-02-13T13:04:56;6.40;66.10
50758;DHT22;36732;47.980;11.652;2023-02-13T13:13:40;6.40;66.20
50758;DHT22;36732;47.980;11.652;2023-02-13T13:19:42;6.40;66.10
50758;DHT22;36732;47.980;11.652;2023-02-13T13:28:13;6.40;67.00
50758;DHT22;36732;47.980;11.652;2023-02-13T13:30:41;6.50;66.30
50758;DHT22;36732;47.980;11.652;2023-02-13T13:33:19;6.50;66.30
50758;DHT22;36732;47.980;11.652;2023-02-13T13:36:00;6.50;66.40
50758;DHT22;36732;47.980;11.652;2023-02-13T13:38:38;6.50;66.60
50758;DHT22;36732;47.980;11.652;2023-02-13T13:41:34;6.50;66.30
50758;DHT22;36732;47.980;11.652;2023-02-13T13:50:22;6.60;66.40
50758;DHT22;36732;47.980;11.652;2023-02-13T13:53:10;6.60;66.50
50758;DHT22;36732;47.980;11.652;2023-02-13T13:58:45;6.60;66.80
50758;DHT22;36732;47.980;11.652;2023-02-13T14:01:28;6.60;67.00
50758;DHT22;36732;47.980;11.652;2023-02-13T14:06:27;6.60;66.80
50758;DHT22;36732;47.980;11.652;2023-02-13T14:09:04;6.60;66.80
50758;DHT22;36732;47.980;11.652;2023-02-13T14:11:43;6.60;66.80
50758;DHT22;36732;47.980;11.652;2023-02-13T14:16:52;6.60;67.30
50758;DHT22;36732;47.980;11.652;2023-02-13T14:22:25;6.70;67.00
50758;DHT22;36732;47.980;11.652;2023-02-13T14:25:01;6.70;67.00
50758;DHT22;36732;47.980;11.652;2023-02-13T14:27:37;6.70;67.50
50758;DHT22;36732;47.980;11.652;2023-02-13T14:30:28;6.70;66.80
50758;DHT22;36732;47.980;11.652;2023-02-13T14:33:02;6.70;67.10
50758;DHT22;36732;47.980;11.652;2023-02-13T14:35:32;6.70;66.70
50758;DHT22;36732;47.980;11.652;2023-02-13T14:38:03;6.70;66.70
50758;DHT22;36732;47.980;11.652;2023-02-13T14:40:51;6.80;66.90
50758;DHT22;36732;47.980;11.652;2023-02-13T14:43:34;6.80;67.00
50758;DHT22;36732;47.980;11.652;2023-02-13T14:46:29;6.80;66.90
50758;DHT22;36732;47.980;11.652;2023-02-13T14:49:12;6.80;66.60
50758;DHT22;36732;47.980;11.652;2023-02-13T14:51:47;6.80;66.60
50758;DHT22;36732;47.980;11.652;2023-02-13T14:57:13;6.80;66.50
50758;DHT22;36732;47.980;11.652;2023-02-13T15:00:22;6.80;66.40
50758;DHT22;36732;47.980;11.652;2023-02-13T15:02:46;6.80;66.40
50758;DHT22;36732;47.980;11.652;2023-02-13T15:05:17;6.80;66.40
50758;DHT22;36732;47.980;11.652;2023-02-13T15:07:54;6.80;66.20
50758;DHT22;36732;47.980;11.652;2023-02-13T15:10:43;6.80;66.30
50758;DHT22;36732;47.980;11.652;2023-02-13T15:13:21;6.80;66.30
50758;DHT22;36732;47.980;11.652;2023-02-13T15:16:09;6.80;66.30
50758;DHT22;36732;47.980;11.652;2023-02-13T15:18:48;6.80;66.30
50758;DHT22;36732;47.980;11.652;2023-02-13T15:21:21;6.80;66.10
50758;DHT22;36732;47.980;11.652;2023-02-13T15:23:51;6.80;66.10
50758;DHT22;36732;47.980;11.652;2023-02-13T15:26:21;6.80;66.10
50758;DHT22;36732;47.980;11.652;2023-02-13T15:28:59;6.90;66.20
50758;DHT22;36732;47.980;11.652;2023-02-13T15:31:44;6.80;66.30
50758;DHT22;36732;47.980;11.652;2023-02-13T15:34:31;6.80;66.10
50758;DHT22;36732;47.980;11.652;2023-02-13T15:37:00;6.80;66.30
50758;DHT22;36732;47.980;11.652;2023-02-13T15:39:28;6.80;66.00
50758;DHT22;36732;47.980;11.652;2023-02-13T15:41:57;6.80;66.10
50758;DHT22;36732;47.980;11.652;2023-02-13T15:44:33;6.80;66.10
50758;DHT22;36732;47.980;11.652;2023-02-13T15:47:04;6.80;66.10
50758;DHT22;36732;47.980;11.652;2023-02-13T15:49:37;6.80;66.10
50758;DHT22;36732;47.980;11.652;2023-02-13T15:52:13;6.80;66.10
50758;DHT22;36732;47.980;11.652;2023-02-13T15:55:01;6.80;66.10
50758;DHT22;36732;47.980;11.652;2023-02-13T15:57:27;6.80;66.00
50758;DHT22;36732;47.980;11.652;2023-02-13T15:59:57;6.80;65.90
50758;DHT22;36732;47.980;11.652;2023-02-13T16:02:30;6.80;66.00
50758;DHT22;36732;47.980;11.652;2023-02-13T16:05:02;6.80;65.90
50758;DHT22;36732;47.980;11.652;2023-02-13T16:07:28;6.80;65.90
50758;DHT22;36732;47.980;11.652;2023-02-13T16:10:35;6.80;65.90
50758;DHT22;36732;47.980;11.652;2023-02-13T16:13:05;6.80;66.00
50758;DHT22;36732;47.980;11.652;2023-02-13T16:15:34;6.80;65.80
50758;DHT22;36732;47.980;11.652;2023-02-13T16:18:02;6.80;65.60
50758;DHT22;36732;47.980;11.652;2023-02-13T16:20:32;6.70;65.50
50758;DHT22;36732;47.980;11.652;2023-02-13T16:23:05;6.70;65.40
50758;DHT22;36732;47.980;11.652;2023-02-13T16:25:39;6.70;65.90
50758;DHT22;36732;47.980;11.652;2023-02-13T16:28:17;6.70;65.30
50758;DHT22;36732;47.980;11.652;2023-02-13T16:30:51;6.70;65.20
50758;DHT22;36732;47.980;11.652;2023-02-13T16:36:00;6.70;65.00
50758;DHT22;36732;47.980;11.652;2023-02-13T16:38:47;6.60;64.90
50758;DHT22;36732;47.980;11.652;2023-02-13T16:43:46;6.60;64.60
50758;DHT22;36732;47.980;11.652;2023-02-13T16:46:40;6.60;64.60
50758;DHT22;36732;47.980;11.652;2023-02-13T16:51:35;6.60;64.50
50758;DHT22;36732;47.980;11.652;2023-02-13T16:54:05;6.60;64.50
50758;DHT22;36732;47.980;11.652;2023-02-13T16:56:48;6.50;64.40
50758;DHT22;36732;47.980;11.652;2023-02-13T16:59:37;6.50;64.50
50758;DHT22;36732;47.980;11.652;2023-02-13T17:04:40;6.50;64.70
50758;DHT22;36732;47.980;11.652;2023-02-13T17:07:21;6.50;64.80
50758;DHT22;36732;47.980;11.652;2023-02-13T17:09:57;6.50;64.90
50758;DHT22;36732;47.980;11.652;2023-02-13T17:12:37;6.50;65.00
50758;DHT22;36732;47.980;11.652;2023-02-13T17:15:04;6.40;65.00
50758;DHT22;36732;47.980;11.652;2023-02-13T17:17:36;6.40;65.10
50758;DHT22;36732;47.980;11.652;2023-02-13T17:20:02;6.40;65.10
50758;DHT22;36732;47.980;11.652;2023-02-13T17:22:42;6.40;65.10
50758;DHT22;36732;47.980;11.652;2023-02-13T17:25:22;6.40;65.30
50758;DHT22;36732;47.980;11.652;2023-02-13T17:27:52;6.40;65.30
50758;DHT22;36732;47.980;11.652;2023-02-13T17:30:25;6.40;65.20
50758;DHT22;36732;47.980;11.652;2023-02-13T17:33:05;6.40;65.30
50758;DHT22;36732;47.980;11.652;2023-02-13T17:35:34;6.40;65.40
50758;DHT22;36732;47.980;11.652;2023-02-13T17:38:00;6.40;65.30
50758;DHT22;36732;47.980;11.652;2023-02-13T17:40:26;6.40;65.30
50758;DHT22;36732;47.980;11.652;2023-02-13T17:42:55;6.40;65.30
50758;DHT22;36732;47.980;11.652;2023-02-13T17:45:24;6.30;65.40
50758;DHT22;36732;47.980;11.652;2023-02-13T17:47:52;6.40;65.50
50758;DHT22;36732;47.980;11.652;2023-02-13T17:50:18;6.40;65.60
50758;DHT22;36732;47.980;11.652;2023-02-13T17:52:45;6.30;66.10
50758;DHT22;36732;47.980;11.652;2023-02-13T17:55:20;6.30;65.60
50758;DHT22;36732;47.980;11.652;2023-02-13T17:57:49;6.40;65.60
50758;DHT22;36732;47.980;11.652;2023-02-13T18:00:17;6.40;65.60
50758;DHT22;36732;47.980;11.652;2023-02-13T18:02:47;6.40;65.60
50758;DHT22;36732;47.980;11.652;2023-02-13T18:05:15;6.40;65.60
50758;DHT22;36732;47.980;11.652;2023-02-13T18:07:42;6.40;65.60
50758;DHT22;36732;47.980;11.652;2023-02-13T18:12:39;6.40;65.60
50758;DHT22;36732;47.980;11.652;2023-02-13T18:15:05;6.40;65.50
50758;DHT22;36732;47.980;11.652;2023-02-13T18:17:31;6.40;65.50
50758;DHT22;36732;47.980;11.652;2023-02-13T18:19:57;6.40;65.50
50758;DHT22;36732;47.980;11.652;2023-02-13T18:22:24;6.40;65.50
50758;DHT22;36732;47.980;11.652;2023-02-13T18:24:50;6.40;65.40
50758;DHT22;36732;47.980;11.652;2023-02-13T18:27:15;6.40;65.40
50758;DHT22;36732;47.980;11.652;2023-02-13T18:29:42;6.40;65.40